HKE540 VHHH-VVNB
Flight info
| Callsign | HKE540 |
|---|---|
| Flight time | 1h 39m |
| Altitude | 32100 |
| Route | PECAN3A PECAN V10 SIKOU/K0870S0980 R339 WUY R474 TEBAK/K0870F321 R474 NAKHA NAKHA3F |
| Aircraft | A321/M-SDE3FGHIRWY/LB1 |
Departure
| Time | 2026-05-09 09:06 |
|---|---|
| Airport | Hong Kong International Airport (VHHH) |
Arrival
| Time | 2026-05-09 10:46 |
|---|---|
| Airport | Noi Bai International Airport (VVNB) |
| Time | Latitude | Longitude | Altitude | Speed | Heading |
|---|---|---|---|---|---|
| 2026-05-09 08:49 | 22.30742 | 113.91788 | 32 ft | 0 kts | 71° |
| 2026-05-09 08:55 | 22.30739 | 113.91780 | 32 ft | 3 kts | 71° |
| 2026-05-09 08:55 | 22.30733 | 113.91759 | 32 ft | 3 kts | 71° |
| 2026-05-09 08:55 | 22.30726 | 113.91739 | 32 ft | 3 kts | 71° |
| 2026-05-09 08:55 | 22.30720 | 113.91718 | 32 ft | 3 kts | 71° |
| 2026-05-09 08:56 | 22.30714 | 113.91698 | 32 ft | 3 kts | 92° |
| 2026-05-09 08:56 | 22.30718 | 113.91681 | 32 ft | 3 kts | 141° |
| 2026-05-09 08:56 | 22.30728 | 113.91675 | 31 ft | 2 kts | 161° |
| 2026-05-09 08:56 | 22.30744 | 113.91668 | 31 ft | 2 kts | 161° |
| 2026-05-09 08:57 | 22.30749 | 113.91666 | 32 ft | 0 kts | 161° |
| 2026-05-09 08:59 | 22.30749 | 113.91667 | 32 ft | 1 kts | 161° |
| 2026-05-09 08:59 | 22.30723 | 113.91676 | 32 ft | 8 kts | 161° |
| 2026-05-09 09:00 | 22.30652 | 113.91703 | 31 ft | 13 kts | 161° |
| 2026-05-09 09:00 | 22.30546 | 113.91731 | 32 ft | 17 kts | 189° |
| 2026-05-09 09:00 | 22.30490 | 113.91635 | 31 ft | 16 kts | 250° |
| 2026-05-09 09:00 | 22.30445 | 113.91497 | 30 ft | 21 kts | 250° |
| 2026-05-09 09:01 | 22.30394 | 113.91345 | 32 ft | 22 kts | 250° |
| 2026-05-09 09:01 | 22.30342 | 113.91191 | 32 ft | 22 kts | 251° |
| 2026-05-09 09:01 | 22.30291 | 113.91027 | 30 ft | 25 kts | 252° |
| 2026-05-09 09:01 | 22.30234 | 113.90841 | 32 ft | 26 kts | 251° |
| 2026-05-09 09:02 | 22.30173 | 113.90653 | 30 ft | 27 kts | 248° |
| 2026-05-09 09:02 | 22.30109 | 113.90462 | 32 ft | 28 kts | 251° |
| 2026-05-09 09:02 | 22.30048 | 113.90270 | 32 ft | 27 kts | 251° |
| 2026-05-09 09:02 | 22.29984 | 113.90078 | 32 ft | 27 kts | 250° |
| 2026-05-09 09:03 | 22.29923 | 113.89884 | 32 ft | 27 kts | 251° |
| 2026-05-09 09:03 | 22.29838 | 113.89746 | 32 ft | 19 kts | 194° |
| 2026-05-09 09:03 | 22.29743 | 113.89768 | 32 ft | 8 kts | 160° |
| 2026-05-09 09:03 | 22.29666 | 113.89795 | 30 ft | 17 kts | 158° |
| 2026-05-09 09:04 | 22.29646 | 113.89884 | 30 ft | 10 kts | 69° |
| 2026-05-09 09:04 | 22.29656 | 113.89913 | 30 ft | 0 kts | 69° |
| 2026-05-09 09:05 | 22.29656 | 113.89914 | 30 ft | 3 kts | 69° |
| 2026-05-09 09:05 | 22.29752 | 113.90204 | 30 ft | 77 kts | 71° |
| 2026-05-09 09:05 | 22.29995 | 113.90973 | 31 ft | 137 kts | 71° |
| 2026-05-09 09:06 | 22.30360 | 113.92118 | 51 ft | 181 kts | 72° |
| 2026-05-09 09:06 | 22.30781 | 113.93402 | 694 ft | 180 kts | 71° |
| 2026-05-09 09:06 | 22.31204 | 113.94693 | 1450 ft | 182 kts | 72° |
| 2026-05-09 09:06 | 22.31639 | 113.96050 | 1744 ft | 200 kts | 72° |
| 2026-05-09 09:07 | 22.32105 | 113.97497 | 2246 ft | 206 kts | 71° |
| 2026-05-09 09:07 | 22.32595 | 113.99018 | 2663 ft | 227 kts | 71° |
| 2026-05-09 09:07 | 22.33132 | 114.00700 | 3050 ft | 244 kts | 71° |
| 2026-05-09 09:07 | 22.33675 | 114.02450 | 3775 ft | 248 kts | 75° |
| 2026-05-09 09:08 | 22.33800 | 114.04298 | 4364 ft | 257 kts | 97° |
| 2026-05-09 09:08 | 22.33191 | 114.06165 | 5009 ft | 266 kts | 121° |
| 2026-05-09 09:08 | 22.31905 | 114.07637 | 5620 ft | 276 kts | 144° |
| 2026-05-09 09:08 | 22.30158 | 114.08528 | 6252 ft | 282 kts | 166° |
| 2026-05-09 09:09 | 22.28201 | 114.08732 | 6886 ft | 286 kts | 181° |
| 2026-05-09 09:09 | 22.26199 | 114.08708 | 7536 ft | 289 kts | 181° |
| 2026-05-09 09:09 | 22.24178 | 114.08684 | 8182 ft | 292 kts | 181° |
| 2026-05-09 09:09 | 22.22141 | 114.08662 | 8800 ft | 295 kts | 181° |
| 2026-05-09 09:10 | 22.20080 | 114.08643 | 9402 ft | 297 kts | 180° |
| 2026-05-09 09:10 | 22.18029 | 114.08948 | 9963 ft | 300 kts | 162° |
| 2026-05-09 09:10 | 22.16162 | 114.09968 | 10533 ft | 303 kts | 142° |
| 2026-05-09 09:10 | 22.14676 | 114.11611 | 10893 ft | 315 kts | 123° |
| 2026-05-09 09:11 | 22.13608 | 114.13743 | 11043 ft | 333 kts | 117° |
| 2026-05-09 09:11 | 22.12538 | 114.16034 | 11172 ft | 351 kts | 117° |
| 2026-05-09 09:11 | 22.11408 | 114.18440 | 11298 ft | 367 kts | 117° |
| 2026-05-09 09:11 | 22.10225 | 114.20943 | 11424 ft | 383 kts | 117° |
| 2026-05-09 09:12 | 22.08975 | 114.23533 | 11689 ft | 393 kts | 120° |
| 2026-05-09 09:12 | 22.07390 | 114.25946 | 12137 ft | 396 kts | 131° |
| 2026-05-09 09:12 | 22.05404 | 114.28015 | 12630 ft | 399 kts | 142° |
| 2026-05-09 09:12 | 22.03165 | 114.29798 | 13123 ft | 402 kts | 144° |
| 2026-05-09 09:13 | 22.00816 | 114.31429 | 13602 ft | 404 kts | 155° |
| 2026-05-09 09:13 | 21.98163 | 114.32398 | 14065 ft | 405 kts | 171° |
| 2026-05-09 09:13 | 21.95347 | 114.32572 | 14536 ft | 406 kts | 186° |
| 2026-05-09 09:13 | 21.92594 | 114.31930 | 15002 ft | 407 kts | 201° |
| 2026-05-09 09:14 | 21.90090 | 114.30529 | 15477 ft | 407 kts | 217° |
| 2026-05-09 09:14 | 21.87853 | 114.28648 | 15991 ft | 408 kts | 219° |
| 2026-05-09 09:14 | 21.85626 | 114.26742 | 16487 ft | 410 kts | 219° |
| 2026-05-09 09:14 | 21.83382 | 114.24828 | 16964 ft | 412 kts | 219° |
| 2026-05-09 09:15 | 21.81126 | 114.22915 | 17441 ft | 414 kts | 219° |
| 2026-05-09 09:15 | 21.78913 | 114.20927 | 17875 ft | 415 kts | 227° |
| 2026-05-09 09:15 | 21.77200 | 114.18445 | 18276 ft | 415 kts | 243° |
| 2026-05-09 09:15 | 21.76098 | 114.15574 | 18660 ft | 416 kts | 250° |
| 2026-05-09 09:16 | 21.75105 | 114.12636 | 19019 ft | 419 kts | 250° |
| 2026-05-09 09:16 | 21.73134 | 114.06693 | 19726 ft | 424 kts | 250° |
| 2026-05-09 09:16 | 21.72141 | 114.03700 | 20071 ft | 427 kts | 250° |
| 2026-05-09 09:17 | 21.71144 | 114.00713 | 20402 ft | 429 kts | 250° |
| 2026-05-09 09:17 | 21.70123 | 113.97684 | 20704 ft | 432 kts | 250° |
| 2026-05-09 09:17 | 21.69095 | 113.94647 | 21023 ft | 434 kts | 249° |
| 2026-05-09 09:17 | 21.68062 | 113.91598 | 21314 ft | 435 kts | 249° |
| 2026-05-09 09:18 | 21.67022 | 113.88527 | 21583 ft | 438 kts | 249° |
| 2026-05-09 09:18 | 21.65981 | 113.85440 | 21845 ft | 441 kts | 249° |
| 2026-05-09 09:18 | 21.65290 | 113.83386 | 22030 ft | 442 kts | 249° |
| 2026-05-09 09:18 | 21.64243 | 113.80273 | 22302 ft | 444 kts | 249° |
| 2026-05-09 09:19 | 21.62830 | 113.76086 | 22666 ft | 447 kts | 249° |
| 2026-05-09 09:19 | 21.62124 | 113.74004 | 22823 ft | 448 kts | 249° |
| 2026-05-09 09:19 | 21.61048 | 113.70849 | 23084 ft | 450 kts | 249° |
| 2026-05-09 09:19 | 21.59971 | 113.67686 | 23339 ft | 452 kts | 249° |
| 2026-05-09 09:20 | 21.58891 | 113.64504 | 23570 ft | 454 kts | 249° |
| 2026-05-09 09:20 | 21.57808 | 113.61308 | 23814 ft | 456 kts | 249° |
| 2026-05-09 09:20 | 21.56721 | 113.58099 | 24038 ft | 458 kts | 249° |
| 2026-05-09 09:20 | 21.55630 | 113.54875 | 24268 ft | 460 kts | 249° |
| 2026-05-09 09:21 | 21.54530 | 113.51637 | 24513 ft | 462 kts | 249° |
| 2026-05-09 09:21 | 21.53425 | 113.48394 | 24741 ft | 463 kts | 249° |
| 2026-05-09 09:21 | 21.52316 | 113.45149 | 24974 ft | 464 kts | 249° |
| 2026-05-09 09:21 | 21.51255 | 113.41873 | 25207 ft | 466 kts | 255° |
| 2026-05-09 09:22 | 21.50826 | 113.38423 | 25426 ft | 469 kts | 269° |
| 2026-05-09 09:22 | 21.51250 | 113.34943 | 25651 ft | 472 kts | 282° |
| 2026-05-09 09:22 | 21.52014 | 113.31512 | 25914 ft | 473 kts | 282° |
| 2026-05-09 09:22 | 21.52789 | 113.28075 | 26161 ft | 474 kts | 282° |
| 2026-05-09 09:23 | 21.53565 | 113.24628 | 26399 ft | 475 kts | 282° |
| 2026-05-09 09:23 | 21.54339 | 113.21177 | 26634 ft | 476 kts | 282° |
| 2026-05-09 09:23 | 21.55101 | 113.17769 | 26935 ft | 474 kts | 282° |
| 2026-05-09 09:23 | 21.55868 | 113.14332 | 27278 ft | 472 kts | 282° |
| 2026-05-09 09:24 | 21.56628 | 113.10909 | 27620 ft | 470 kts | 282° |
| 2026-05-09 09:24 | 21.57384 | 113.07501 | 27965 ft | 468 kts | 282° |
| 2026-05-09 09:24 | 21.58137 | 113.04105 | 28311 ft | 466 kts | 282° |
| 2026-05-09 09:24 | 21.58886 | 113.00730 | 28645 ft | 464 kts | 283° |
| 2026-05-09 09:25 | 21.59633 | 112.97369 | 28992 ft | 461 kts | 283° |
| 2026-05-09 09:25 | 21.60373 | 112.94024 | 29347 ft | 459 kts | 283° |
| 2026-05-09 09:25 | 21.61108 | 112.90691 | 29690 ft | 457 kts | 283° |
| 2026-05-09 09:25 | 21.61835 | 112.87382 | 30044 ft | 454 kts | 283° |
| 2026-05-09 09:26 | 21.62557 | 112.84084 | 30394 ft | 452 kts | 283° |
| 2026-05-09 09:26 | 21.63273 | 112.80807 | 30712 ft | 450 kts | 283° |
| 2026-05-09 09:26 | 21.63990 | 112.77539 | 31037 ft | 447 kts | 283° |
| 2026-05-09 09:26 | 21.64705 | 112.74297 | 31370 ft | 446 kts | 283° |
| 2026-05-09 09:27 | 21.65417 | 112.71063 | 31692 ft | 443 kts | 283° |
| 2026-05-09 09:27 | 21.66125 | 112.67845 | 31999 ft | 442 kts | 284° |
| 2026-05-09 09:27 | 21.67532 | 112.61441 | 32099 ft | 439 kts | 284° |
| 2026-05-09 09:28 | 21.68927 | 112.55071 | 32097 ft | 437 kts | 284° |
| 2026-05-09 09:28 | 21.70316 | 112.48715 | 32099 ft | 436 kts | 283° |
| 2026-05-09 09:29 | 21.71695 | 112.42362 | 32093 ft | 436 kts | 283° |
| 2026-05-09 09:29 | 21.73077 | 112.36019 | 32091 ft | 436 kts | 284° |
| 2026-05-09 09:30 | 21.74463 | 112.29667 | 32098 ft | 436 kts | 283° |
| 2026-05-09 09:30 | 21.75837 | 112.23320 | 32100 ft | 436 kts | 283° |
| 2026-05-09 09:31 | 21.77202 | 112.16974 | 32107 ft | 435 kts | 283° |
| 2026-05-09 09:32 | 21.79245 | 112.07459 | 32101 ft | 435 kts | 283° |
| 2026-05-09 09:32 | 21.80607 | 112.01123 | 32118 ft | 434 kts | 283° |
| 2026-05-09 09:33 | 21.81974 | 111.94799 | 32107 ft | 434 kts | 283° |
| 2026-05-09 09:33 | 21.83336 | 111.88470 | 32102 ft | 434 kts | 283° |
| 2026-05-09 09:34 | 21.84688 | 111.82138 | 32101 ft | 434 kts | 283° |
| 2026-05-09 09:34 | 21.86027 | 111.75849 | 32099 ft | 434 kts | 283° |
| 2026-05-09 09:36 | 21.91404 | 111.50487 | 32099 ft | 435 kts | 283° |
| 2026-05-09 09:37 | 21.92750 | 111.44139 | 32094 ft | 435 kts | 283° |
| 2026-05-09 09:37 | 21.94094 | 111.37778 | 32088 ft | 435 kts | 283° |
| 2026-05-09 09:38 | 21.95434 | 111.31415 | 32090 ft | 436 kts | 283° |
| 2026-05-09 09:38 | 21.96773 | 111.25041 | 32087 ft | 436 kts | 283° |
| 2026-05-09 09:39 | 21.98110 | 111.18662 | 32089 ft | 437 kts | 283° |
| 2026-05-09 09:39 | 21.99446 | 111.12271 | 32082 ft | 437 kts | 283° |
| 2026-05-09 09:40 | 22.00776 | 111.05881 | 32084 ft | 437 kts | 283° |
| 2026-05-09 09:40 | 22.02108 | 110.99491 | 32106 ft | 436 kts | 283° |
| 2026-05-09 09:41 | 22.03432 | 110.93119 | 32107 ft | 436 kts | 283° |
| 2026-05-09 09:41 | 22.04748 | 110.86748 | 32112 ft | 435 kts | 283° |
| 2026-05-09 09:42 | 22.06068 | 110.80387 | 32103 ft | 435 kts | 282° |
| 2026-05-09 09:42 | 22.07383 | 110.74028 | 32098 ft | 435 kts | 282° |
| 2026-05-09 09:43 | 22.08693 | 110.67663 | 32100 ft | 435 kts | 282° |
| 2026-05-09 09:43 | 22.10006 | 110.61296 | 32097 ft | 435 kts | 282° |
| 2026-05-09 09:44 | 22.11320 | 110.54923 | 32097 ft | 436 kts | 282° |
| 2026-05-09 09:44 | 22.12626 | 110.48540 | 32101 ft | 436 kts | 282° |
| 2026-05-09 09:45 | 22.13929 | 110.42154 | 32096 ft | 436 kts | 282° |
| 2026-05-09 09:45 | 22.15236 | 110.35771 | 32093 ft | 436 kts | 282° |
| 2026-05-09 09:46 | 22.16538 | 110.29374 | 32092 ft | 436 kts | 282° |
| 2026-05-09 09:46 | 22.17834 | 110.22980 | 32092 ft | 437 kts | 282° |
| 2026-05-09 09:47 | 22.19138 | 110.16570 | 32096 ft | 437 kts | 282° |
| 2026-05-09 09:47 | 22.20440 | 110.10153 | 32096 ft | 438 kts | 282° |
| 2026-05-09 09:48 | 22.21734 | 110.03736 | 32100 ft | 438 kts | 282° |
| 2026-05-09 09:48 | 22.23027 | 109.97295 | 32101 ft | 439 kts | 282° |
| 2026-05-09 09:49 | 22.24317 | 109.90864 | 32108 ft | 439 kts | 282° |
| 2026-05-09 09:49 | 22.25612 | 109.84428 | 32108 ft | 439 kts | 282° |
| 2026-05-09 09:50 | 22.26900 | 109.77993 | 32110 ft | 438 kts | 282° |
| 2026-05-09 09:50 | 22.28181 | 109.71563 | 32123 ft | 438 kts | 282° |
| 2026-05-09 09:51 | 22.29462 | 109.65136 | 32117 ft | 438 kts | 282° |
| 2026-05-09 09:51 | 22.30743 | 109.58705 | 32123 ft | 438 kts | 282° |
| 2026-05-09 09:52 | 22.32023 | 109.52274 | 32129 ft | 438 kts | 282° |
| 2026-05-09 09:52 | 22.33297 | 109.45847 | 32125 ft | 437 kts | 282° |
| 2026-05-09 09:53 | 22.34566 | 109.39427 | 32120 ft | 437 kts | 282° |
| 2026-05-09 09:53 | 22.35825 | 109.33007 | 32120 ft | 437 kts | 282° |
| 2026-05-09 09:54 | 22.37083 | 109.26586 | 32128 ft | 437 kts | 282° |
| 2026-05-09 09:54 | 22.38345 | 109.20178 | 32131 ft | 436 kts | 281° |
| 2026-05-09 09:55 | 22.39602 | 109.13778 | 32131 ft | 436 kts | 281° |
| 2026-05-09 09:55 | 22.40854 | 109.07375 | 32128 ft | 435 kts | 281° |
| 2026-05-09 09:56 | 22.42099 | 109.00981 | 32133 ft | 435 kts | 281° |
| 2026-05-09 09:56 | 22.43343 | 108.94589 | 32121 ft | 435 kts | 281° |
| 2026-05-09 09:57 | 22.44585 | 108.88189 | 32127 ft | 435 kts | 281° |
| 2026-05-09 09:57 | 22.45823 | 108.81793 | 32119 ft | 435 kts | 281° |
| 2026-05-09 09:58 | 22.47063 | 108.75394 | 32127 ft | 435 kts | 281° |
| 2026-05-09 09:58 | 22.48301 | 108.68989 | 32123 ft | 435 kts | 281° |
| 2026-05-09 09:59 | 22.49531 | 108.62576 | 32122 ft | 436 kts | 281° |
| 2026-05-09 09:59 | 22.50757 | 108.56153 | 32135 ft | 437 kts | 281° |
| 2026-05-09 10:00 | 22.51779 | 108.50809 | 32135 ft | 437 kts | 281° |
| 2026-05-09 10:00 | 22.53225 | 108.43283 | 32132 ft | 437 kts | 281° |
| 2026-05-09 10:01 | 22.54254 | 108.37926 | 32133 ft | 437 kts | 281° |
| 2026-05-09 10:01 | 22.55482 | 108.31484 | 32134 ft | 437 kts | 281° |
| 2026-05-09 10:02 | 22.56698 | 108.25038 | 32138 ft | 437 kts | 281° |
| 2026-05-09 10:02 | 22.57911 | 108.18592 | 31988 ft | 436 kts | 279° |
| 2026-05-09 10:03 | 22.58077 | 108.12072 | 32026 ft | 436 kts | 262° |
| 2026-05-09 10:03 | 22.56939 | 108.05615 | 32028 ft | 438 kts | 260° |
| 2026-05-09 10:04 | 22.55800 | 107.99150 | 32026 ft | 438 kts | 260° |
| 2026-05-09 10:04 | 22.54665 | 107.92682 | 32028 ft | 438 kts | 259° |
| 2026-05-09 10:05 | 22.53524 | 107.86213 | 32028 ft | 438 kts | 259° |
| 2026-05-09 10:05 | 22.52371 | 107.79736 | 32028 ft | 439 kts | 259° |
| 2026-05-09 10:06 | 22.51216 | 107.73257 | 32031 ft | 439 kts | 259° |
| 2026-05-09 10:06 | 22.50063 | 107.66772 | 32035 ft | 439 kts | 259° |
| 2026-05-09 10:07 | 22.48907 | 107.60291 | 32035 ft | 439 kts | 259° |
| 2026-05-09 10:07 | 22.47744 | 107.53818 | 32032 ft | 439 kts | 259° |
| 2026-05-09 10:08 | 22.46575 | 107.47339 | 32033 ft | 439 kts | 259° |
| 2026-05-09 10:08 | 22.45755 | 107.44321 | 33309 ft | 382 kts | 238° |
| 2026-05-09 10:08 | 22.44461 | 107.42088 | 35711 ft | 338 kts | 244° |
| 2026-05-09 10:08 | 22.43535 | 107.39713 | 35164 ft | 353 kts | 263° |
| 2026-05-09 10:09 | 22.43368 | 107.37045 | 34660 ft | 361 kts | 270° |
| 2026-05-09 10:09 | 22.43361 | 107.34273 | 34103 ft | 373 kts | 270° |
| 2026-05-09 10:09 | 22.43221 | 107.31435 | 33974 ft | 383 kts | 266° |
| 2026-05-09 10:10 | 22.42704 | 107.25608 | 33999 ft | 396 kts | 262° |
| 2026-05-09 10:10 | 22.41578 | 107.19673 | 33999 ft | 410 kts | 259° |
| 2026-05-09 10:11 | 22.40459 | 107.13532 | 33999 ft | 423 kts | 260° |
| 2026-05-09 10:11 | 22.39350 | 107.07228 | 34000 ft | 429 kts | 260° |
| 2026-05-09 10:12 | 22.38219 | 107.00879 | 33998 ft | 431 kts | 260° |
| 2026-05-09 10:12 | 22.37067 | 106.94527 | 33990 ft | 431 kts | 260° |
| 2026-05-09 10:13 | 22.35475 | 106.88295 | 33990 ft | 433 kts | 246° |
| 2026-05-09 10:13 | 22.32024 | 106.82945 | 33987 ft | 440 kts | 228° |
| 2026-05-09 10:14 | 22.27663 | 106.78304 | 33991 ft | 441 kts | 228° |
| 2026-05-09 10:14 | 22.23284 | 106.73654 | 33998 ft | 442 kts | 228° |
| 2026-05-09 10:15 | 22.19021 | 106.69136 | 33772 ft | 419 kts | 227° |
| 2026-05-09 10:15 | 22.16923 | 106.67010 | 33279 ft | 410 kts | 223° |
| 2026-05-09 10:15 | 22.14726 | 106.65078 | 32687 ft | 405 kts | 222° |
| 2026-05-09 10:15 | 22.12551 | 106.63177 | 32053 ft | 400 kts | 222° |
| 2026-05-09 10:16 | 22.10399 | 106.61302 | 31372 ft | 395 kts | 221° |
| 2026-05-09 10:16 | 22.08277 | 106.59451 | 30574 ft | 390 kts | 221° |
| 2026-05-09 10:16 | 22.06179 | 106.57623 | 29557 ft | 387 kts | 221° |
| 2026-05-09 10:16 | 22.04098 | 106.55810 | 28597 ft | 382 kts | 221° |
| 2026-05-09 10:17 | 22.02045 | 106.54024 | 27731 ft | 376 kts | 220° |
| 2026-05-09 10:17 | 22.00023 | 106.52269 | 26901 ft | 370 kts | 220° |
| 2026-05-09 10:17 | 21.98036 | 106.50545 | 26047 ft | 365 kts | 220° |
| 2026-05-09 10:17 | 21.96074 | 106.48832 | 25147 ft | 361 kts | 221° |
| 2026-05-09 10:18 | 21.94178 | 106.47088 | 24256 ft | 356 kts | 223° |
| 2026-05-09 10:18 | 21.92338 | 106.45327 | 23358 ft | 352 kts | 223° |
| 2026-05-09 10:18 | 21.90535 | 106.43568 | 22452 ft | 348 kts | 223° |
| 2026-05-09 10:18 | 21.88754 | 106.41827 | 21590 ft | 343 kts | 223° |
| 2026-05-09 10:19 | 21.86994 | 106.40115 | 20713 ft | 339 kts | 223° |
| 2026-05-09 10:19 | 21.85246 | 106.38428 | 19841 ft | 335 kts | 222° |
| 2026-05-09 10:19 | 21.83517 | 106.36772 | 18976 ft | 331 kts | 222° |
| 2026-05-09 10:19 | 21.81801 | 106.35139 | 18131 ft | 327 kts | 222° |
| 2026-05-09 10:20 | 21.80100 | 106.33523 | 17376 ft | 326 kts | 221° |
| 2026-05-09 10:20 | 21.78401 | 106.31908 | 16995 ft | 323 kts | 221° |
| 2026-05-09 10:20 | 21.76738 | 106.30324 | 16270 ft | 318 kts | 222° |
| 2026-05-09 10:20 | 21.75082 | 106.28750 | 15614 ft | 316 kts | 221° |
| 2026-05-09 10:21 | 21.73450 | 106.27186 | 15048 ft | 312 kts | 224° |
| 2026-05-09 10:21 | 21.71992 | 106.25489 | 14693 ft | 306 kts | 229° |
| 2026-05-09 10:21 | 21.70587 | 106.23749 | 14445 ft | 309 kts | 229° |
| 2026-05-09 10:21 | 21.69173 | 106.22010 | 14193 ft | 308 kts | 229° |
| 2026-05-09 10:22 | 21.67755 | 106.20282 | 13944 ft | 307 kts | 229° |
| 2026-05-09 10:22 | 21.66345 | 106.18566 | 13953 ft | 307 kts | 229° |
| 2026-05-09 10:22 | 21.64928 | 106.16841 | 13967 ft | 308 kts | 229° |
| 2026-05-09 10:22 | 21.63510 | 106.15117 | 13969 ft | 309 kts | 229° |
| 2026-05-09 10:23 | 21.62086 | 106.13389 | 13969 ft | 308 kts | 229° |
| 2026-05-09 10:23 | 21.60668 | 106.11662 | 13972 ft | 308 kts | 229° |
| 2026-05-09 10:23 | 21.59256 | 106.09929 | 13961 ft | 309 kts | 230° |
| 2026-05-09 10:23 | 21.57885 | 106.08124 | 13443 ft | 314 kts | 232° |
| 2026-05-09 10:24 | 21.56573 | 106.06277 | 13151 ft | 308 kts | 233° |
| 2026-05-09 10:24 | 21.55298 | 106.04440 | 12595 ft | 306 kts | 233° |
| 2026-05-09 10:24 | 21.54034 | 106.02612 | 11989 ft | 303 kts | 233° |
| 2026-05-09 10:24 | 21.52769 | 106.00799 | 11382 ft | 303 kts | 233° |
| 2026-05-09 10:25 | 21.51500 | 105.98994 | 10906 ft | 301 kts | 232° |
| 2026-05-09 10:25 | 21.50230 | 105.97202 | 10390 ft | 301 kts | 232° |
| 2026-05-09 10:25 | 21.48952 | 105.95431 | 9902 ft | 301 kts | 231° |
| 2026-05-09 10:25 | 21.47642 | 105.93694 | 9432 ft | 299 kts | 230° |
| 2026-05-09 10:26 | 21.46320 | 105.91978 | 8968 ft | 298 kts | 230° |
| 2026-05-09 10:26 | 21.44997 | 105.90273 | 8494 ft | 296 kts | 230° |
| 2026-05-09 10:26 | 21.43681 | 105.88577 | 7938 ft | 294 kts | 230° |
| 2026-05-09 10:26 | 21.42382 | 105.86896 | 7444 ft | 290 kts | 230° |
| 2026-05-09 10:27 | 21.41110 | 105.85245 | 7086 ft | 281 kts | 230° |
| 2026-05-09 10:27 | 21.39904 | 105.83675 | 6933 ft | 265 kts | 230° |
| 2026-05-09 10:27 | 21.38857 | 105.82107 | 6783 ft | 256 kts | 243° |
| 2026-05-09 10:27 | 21.38281 | 105.80314 | 6668 ft | 254 kts | 262° |
| 2026-05-09 10:28 | 21.38108 | 105.78428 | 6670 ft | 254 kts | 265° |
| 2026-05-09 10:28 | 21.37944 | 105.76535 | 6672 ft | 255 kts | 265° |
| 2026-05-09 10:28 | 21.37774 | 105.74641 | 6673 ft | 255 kts | 265° |
| 2026-05-09 10:28 | 21.37602 | 105.72748 | 6652 ft | 255 kts | 265° |
| 2026-05-09 10:29 | 21.37427 | 105.70855 | 6598 ft | 256 kts | 265° |
| 2026-05-09 10:29 | 21.37252 | 105.68957 | 6538 ft | 255 kts | 265° |
| 2026-05-09 10:29 | 21.37081 | 105.67074 | 6459 ft | 250 kts | 265° |
| 2026-05-09 10:29 | 21.36976 | 105.65274 | 6418 ft | 235 kts | 274° |
| 2026-05-09 10:30 | 21.37309 | 105.63587 | 6349 ft | 230 kts | 289° |
| 2026-05-09 10:30 | 21.37784 | 105.61947 | 6286 ft | 229 kts | 288° |
| 2026-05-09 10:30 | 21.38251 | 105.60314 | 6239 ft | 229 kts | 288° |
| 2026-05-09 10:30 | 21.38718 | 105.58681 | 6174 ft | 229 kts | 288° |
| 2026-05-09 10:31 | 21.39188 | 105.57046 | 6104 ft | 229 kts | 288° |
| 2026-05-09 10:31 | 21.39659 | 105.55414 | 6055 ft | 229 kts | 288° |
| 2026-05-09 10:31 | 21.40131 | 105.53783 | 5992 ft | 229 kts | 288° |
| 2026-05-09 10:31 | 21.40599 | 105.52155 | 5927 ft | 228 kts | 288° |
| 2026-05-09 10:32 | 21.41067 | 105.50527 | 5874 ft | 228 kts | 289° |
| 2026-05-09 10:32 | 21.41536 | 105.48896 | 5814 ft | 229 kts | 288° |
| 2026-05-09 10:32 | 21.42003 | 105.47267 | 5745 ft | 228 kts | 289° |
| 2026-05-09 10:32 | 21.42468 | 105.45643 | 5676 ft | 228 kts | 288° |
| 2026-05-09 10:33 | 21.42931 | 105.44019 | 5632 ft | 228 kts | 288° |
| 2026-05-09 10:33 | 21.43393 | 105.42413 | 5566 ft | 227 kts | 288° |
| 2026-05-09 10:33 | 21.43859 | 105.40795 | 5503 ft | 227 kts | 288° |
| 2026-05-09 10:33 | 21.44325 | 105.39176 | 5434 ft | 226 kts | 289° |
| 2026-05-09 10:34 | 21.44790 | 105.37565 | 5368 ft | 227 kts | 288° |
| 2026-05-09 10:34 | 21.44514 | 105.34357 | 5242 ft | 228 kts | 228° |
| 2026-05-09 10:34 | 21.43206 | 105.33458 | 5183 ft | 226 kts | 196° |
| 2026-05-09 10:35 | 21.41697 | 105.32969 | 5104 ft | 226 kts | 195° |
| 2026-05-09 10:35 | 21.40188 | 105.32484 | 5033 ft | 226 kts | 195° |
| 2026-05-09 10:35 | 21.38680 | 105.32001 | 4969 ft | 226 kts | 194° |
| 2026-05-09 10:35 | 21.37140 | 105.31920 | 4894 ft | 223 kts | 162° |
| 2026-05-09 10:36 | 21.35864 | 105.32774 | 4841 ft | 217 kts | 127° |
| 2026-05-09 10:36 | 21.35261 | 105.34223 | 4776 ft | 214 kts | 98° |
| 2026-05-09 10:36 | 21.34944 | 105.35785 | 4713 ft | 215 kts | 105° |
| 2026-05-09 10:36 | 21.34499 | 105.37321 | 4653 ft | 216 kts | 107° |
| 2026-05-09 10:37 | 21.34026 | 105.38845 | 4592 ft | 216 kts | 107° |
| 2026-05-09 10:37 | 21.33549 | 105.40372 | 4520 ft | 216 kts | 108° |
| 2026-05-09 10:37 | 21.33052 | 105.41886 | 4490 ft | 216 kts | 107° |
| 2026-05-09 10:37 | 21.32593 | 105.43409 | 4421 ft | 215 kts | 105° |
| 2026-05-09 10:38 | 21.32155 | 105.44939 | 4351 ft | 214 kts | 105° |
| 2026-05-09 10:38 | 21.31717 | 105.46465 | 4306 ft | 213 kts | 106° |
| 2026-05-09 10:38 | 21.31283 | 105.47991 | 4248 ft | 214 kts | 105° |
| 2026-05-09 10:38 | 21.30846 | 105.49512 | 4194 ft | 213 kts | 105° |
| 2026-05-09 10:39 | 21.30407 | 105.51038 | 4101 ft | 214 kts | 105° |
| 2026-05-09 10:39 | 21.29970 | 105.52559 | 4005 ft | 213 kts | 105° |
| 2026-05-09 10:39 | 21.29536 | 105.54073 | 4005 ft | 213 kts | 105° |
| 2026-05-09 10:39 | 21.29102 | 105.55590 | 4039 ft | 212 kts | 104° |
| 2026-05-09 10:40 | 21.28667 | 105.57101 | 3998 ft | 212 kts | 106° |
| 2026-05-09 10:40 | 21.28233 | 105.58613 | 3809 ft | 212 kts | 105° |
| 2026-05-09 10:40 | 21.27800 | 105.60125 | 3542 ft | 212 kts | 105° |
| 2026-05-09 10:40 | 21.27513 | 105.61121 | 3361 ft | 211 kts | 105° |
| 2026-05-09 10:41 | 21.27081 | 105.62618 | 3084 ft | 210 kts | 105° |
| 2026-05-09 10:41 | 21.26936 | 105.63125 | 2992 ft | 210 kts | 105° |
| 2026-05-09 10:41 | 21.25848 | 105.66909 | 2303 ft | 171 kts | 107° |
| 2026-05-09 10:42 | 21.25511 | 105.68080 | 2066 ft | 159 kts | 108° |
| 2026-05-09 10:42 | 21.25189 | 105.69196 | 1856 ft | 155 kts | 109° |
| 2026-05-09 10:42 | 21.24872 | 105.70300 | 1671 ft | 155 kts | 108° |
| 2026-05-09 10:42 | 21.24553 | 105.71405 | 1449 ft | 156 kts | 108° |
| 2026-05-09 10:43 | 21.24234 | 105.72514 | 1252 ft | 156 kts | 106° |
| 2026-05-09 10:43 | 21.23915 | 105.73621 | 1038 ft | 155 kts | 106° |
| 2026-05-09 10:43 | 21.23596 | 105.74725 | 830 ft | 154 kts | 107° |
| 2026-05-09 10:43 | 21.23281 | 105.75820 | 641 ft | 155 kts | 106° |
| 2026-05-09 10:44 | 21.22974 | 105.76923 | 421 ft | 153 kts | 106° |
| 2026-05-09 10:44 | 21.22667 | 105.78018 | 240 ft | 153 kts | 107° |
| 2026-05-09 10:44 | 21.22341 | 105.79102 | 67 ft | 152 kts | 107° |
| 2026-05-09 10:44 | 21.22062 | 105.80070 | 49 ft | 115 kts | 108° |
| 2026-05-09 10:45 | 21.21907 | 105.80617 | 49 ft | 50 kts | 105° |
| 2026-05-09 10:46 | 21.21598 | 105.81070 | 47 ft | 8 kts | 152° |
| 2026-05-09 10:46 | 21.21536 | 105.81064 | 50 ft | 11 kts | 205° |
| 2026-05-09 10:46 | 21.21529 | 105.80996 | 50 ft | 11 kts | 284° |
| 2026-05-09 10:46 | 21.21558 | 105.80889 | 50 ft | 18 kts | 287° |
| 2026-05-09 10:47 | 21.21600 | 105.80748 | 50 ft | 19 kts | 288° |
| 2026-05-09 10:47 | 21.21601 | 105.80645 | 48 ft | 11 kts | 224° |
| 2026-05-09 10:47 | 21.21531 | 105.80616 | 50 ft | 12 kts | 194° |
| 2026-05-09 10:47 | 21.21472 | 105.80576 | 50 ft | 9 kts | 266° |
| 2026-05-09 10:48 | 21.21484 | 105.80541 | 50 ft | 2 kts | 303° |
| 2026-05-09 10:48 | 21.21492 | 105.80528 | 50 ft | 0 kts | 303° |